AAL327 KORD-KLGA
Flight info
| Callsign | AAL327 |
|---|---|
| Flight time | 1h 32m |
| Altitude | 37000 |
| Route | MOBLE ADIME GERBS Q186 WEVEL ETG MIP4 |
| Aircraft | A319/M-SDE3FGHIRWY/LB1 |
Departure
| Time | 2026-05-06 15:08 |
|---|---|
| Airport | Chicago O'Hare International Airport (KORD) |
Arrival
| Time | 2026-05-06 16:41 |
|---|---|
| Airport | LaGuardia Airport (KLGA) |
| Time | Latitude | Longitude | Altitude | Speed | Heading |
|---|---|---|---|---|---|
| 2026-05-06 14:41 | 41.97445 | -87.89824 | 669 ft | 0 kts | 32° |
| 2026-05-06 14:53 | 41.97441 | -87.89827 | 669 ft | 3 kts | 33° |
| 2026-05-06 14:53 | 41.97426 | -87.89840 | 667 ft | 4 kts | 41° |
| 2026-05-06 14:53 | 41.97408 | -87.89866 | 669 ft | 4 kts | 60° |
| 2026-05-06 14:53 | 41.97400 | -87.89898 | 669 ft | 4 kts | 100° |
| 2026-05-06 14:54 | 41.97405 | -87.89917 | 669 ft | 1 kts | 129° |
| 2026-05-06 14:54 | 41.97397 | -87.89888 | 669 ft | 4 kts | 105° |
| 2026-05-06 14:54 | 41.97384 | -87.89858 | 666 ft | 4 kts | 133° |
| 2026-05-06 14:54 | 41.97374 | -87.89848 | 669 ft | 0 kts | 146° |
| 2026-05-06 14:57 | 41.97368 | -87.89843 | 669 ft | 2 kts | 147° |
| 2026-05-06 14:57 | 41.97351 | -87.89828 | 669 ft | 4 kts | 146° |
| 2026-05-06 14:58 | 41.97325 | -87.89804 | 669 ft | 4 kts | 147° |
| 2026-05-06 14:58 | 41.97300 | -87.89782 | 669 ft | 4 kts | 147° |
| 2026-05-06 14:58 | 41.97275 | -87.89755 | 669 ft | 4 kts | 123° |
| 2026-05-06 14:58 | 41.97277 | -87.89716 | 669 ft | 4 kts | 70° |
| 2026-05-06 14:59 | 41.97293 | -87.89677 | 667 ft | 6 kts | 60° |
| 2026-05-06 14:59 | 41.97316 | -87.89627 | 669 ft | 7 kts | 54° |
| 2026-05-06 14:59 | 41.97352 | -87.89577 | 669 ft | 8 kts | 39° |
| 2026-05-06 14:59 | 41.97404 | -87.89541 | 668 ft | 9 kts | 20° |
| 2026-05-06 15:00 | 41.97468 | -87.89524 | 669 ft | 10 kts | 4° |
| 2026-05-06 15:00 | 41.97542 | -87.89524 | 669 ft | 11 kts | 359° |
| 2026-05-06 15:00 | 41.97626 | -87.89525 | 669 ft | 13 kts | 360° |
| 2026-05-06 15:00 | 41.97712 | -87.89525 | 669 ft | 12 kts | 0° |
| 2026-05-06 15:01 | 41.97791 | -87.89526 | 669 ft | 11 kts | 360° |
| 2026-05-06 15:01 | 41.97864 | -87.89526 | 669 ft | 10 kts | 360° |
| 2026-05-06 15:01 | 41.97933 | -87.89516 | 669 ft | 11 kts | 20° |
| 2026-05-06 15:01 | 41.97994 | -87.89437 | 669 ft | 13 kts | 50° |
| 2026-05-06 15:02 | 41.98040 | -87.89364 | 669 ft | 11 kts | 50° |
| 2026-05-06 15:02 | 41.98090 | -87.89321 | 669 ft | 9 kts | 352° |
| 2026-05-06 15:02 | 41.98139 | -87.89376 | 669 ft | 10 kts | 315° |
| 2026-05-06 15:02 | 41.98188 | -87.89442 | 669 ft | 9 kts | 315° |
| 2026-05-06 15:03 | 41.98214 | -87.89476 | 669 ft | 1 kts | 315° |
| 2026-05-06 15:03 | 41.98214 | -87.89477 | 669 ft | 0 kts | 315° |
| 2026-05-06 15:05 | 41.98215 | -87.89478 | 669 ft | 0 kts | 315° |
| 2026-05-06 15:06 | 41.98222 | -87.89488 | 669 ft | 3 kts | 315° |
| 2026-05-06 15:06 | 41.98243 | -87.89517 | 669 ft | 6 kts | 315° |
| 2026-05-06 15:06 | 41.98278 | -87.89564 | 670 ft | 9 kts | 315° |
| 2026-05-06 15:06 | 41.98330 | -87.89627 | 668 ft | 10 kts | 320° |
| 2026-05-06 15:07 | 41.98374 | -87.89652 | 669 ft | 4 kts | 356° |
| 2026-05-06 15:07 | 41.98388 | -87.89686 | 672 ft | 2 kts | 273° |
| 2026-05-06 15:07 | 41.98388 | -87.89690 | 672 ft | 2 kts | 272° |
| 2026-05-06 15:07 | 41.98390 | -87.89885 | 671 ft | 55 kts | 270° |
| 2026-05-06 15:08 | 41.98389 | -87.90733 | 667 ft | 123 kts | 270° |
| 2026-05-06 15:08 | 41.98386 | -87.92111 | 847 ft | 158 kts | 270° |
| 2026-05-06 15:08 | 41.98385 | -87.93574 | 1570 ft | 156 kts | 271° |
| 2026-05-06 15:08 | 41.98397 | -87.95026 | 2256 ft | 155 kts | 276° |
| 2026-05-06 15:09 | 41.98869 | -87.96388 | 2586 ft | 175 kts | 317° |
| 2026-05-06 15:09 | 42.00052 | -87.97054 | 2850 ft | 202 kts | 355° |
| 2026-05-06 15:09 | 42.01493 | -87.96549 | 3186 ft | 232 kts | 28° |
| 2026-05-06 15:09 | 42.02887 | -87.95243 | 3732 ft | 255 kts | 35° |
| 2026-05-06 15:10 | 42.04315 | -87.93759 | 4268 ft | 262 kts | 36° |
| 2026-05-06 15:10 | 42.05758 | -87.92238 | 4530 ft | 264 kts | 36° |
| 2026-05-06 15:10 | 42.07205 | -87.90702 | 4802 ft | 266 kts | 36° |
| 2026-05-06 15:10 | 42.08659 | -87.89148 | 4981 ft | 267 kts | 36° |
| 2026-05-06 15:11 | 42.10126 | -87.87577 | 5434 ft | 271 kts | 36° |
| 2026-05-06 15:11 | 42.11496 | -87.85802 | 6328 ft | 279 kts | 53° |
| 2026-05-06 15:11 | 42.12231 | -87.83347 | 7099 ft | 289 kts | 79° |
| 2026-05-06 15:11 | 42.12432 | -87.80629 | 7925 ft | 294 kts | 85° |
| 2026-05-06 15:12 | 42.12559 | -87.77852 | 8727 ft | 300 kts | 85° |
| 2026-05-06 15:12 | 42.12675 | -87.75021 | 9535 ft | 305 kts | 85° |
| 2026-05-06 15:12 | 42.12789 | -87.72137 | 10275 ft | 311 kts | 86° |
| 2026-05-06 15:12 | 42.12915 | -87.69197 | 10949 ft | 318 kts | 86° |
| 2026-05-06 15:13 | 42.12922 | -87.66122 | 11330 ft | 335 kts | 98° |
| 2026-05-06 15:13 | 42.12582 | -87.62945 | 11534 ft | 357 kts | 100° |
| 2026-05-06 15:13 | 42.12197 | -87.59579 | 12043 ft | 367 kts | 101° |
| 2026-05-06 15:13 | 42.11799 | -87.56159 | 12669 ft | 373 kts | 101° |
| 2026-05-06 15:14 | 42.11391 | -87.52684 | 13299 ft | 379 kts | 102° |
| 2026-05-06 15:14 | 42.10977 | -87.49154 | 13906 ft | 385 kts | 102° |
| 2026-05-06 15:14 | 42.10561 | -87.45569 | 14444 ft | 390 kts | 102° |
| 2026-05-06 15:14 | 42.10143 | -87.41935 | 14987 ft | 395 kts | 102° |
| 2026-05-06 15:15 | 42.09721 | -87.38257 | 15529 ft | 400 kts | 102° |
| 2026-05-06 15:15 | 42.09294 | -87.34533 | 16070 ft | 405 kts | 102° |
| 2026-05-06 15:15 | 42.08859 | -87.30757 | 16596 ft | 410 kts | 102° |
| 2026-05-06 15:15 | 42.08416 | -87.26933 | 17129 ft | 415 kts | 103° |
| 2026-05-06 15:16 | 42.07964 | -87.23068 | 17670 ft | 420 kts | 103° |
| 2026-05-06 15:16 | 42.07504 | -87.19156 | 18203 ft | 425 kts | 103° |
| 2026-05-06 15:16 | 42.07047 | -87.15249 | 18679 ft | 430 kts | 103° |
| 2026-05-06 15:16 | 42.06580 | -87.11258 | 19169 ft | 433 kts | 103° |
| 2026-05-06 15:17 | 42.06107 | -87.07242 | 19684 ft | 436 kts | 103° |
| 2026-05-06 15:17 | 42.05629 | -87.03195 | 20190 ft | 439 kts | 103° |
| 2026-05-06 15:17 | 42.05147 | -86.99118 | 20696 ft | 443 kts | 103° |
| 2026-05-06 15:17 | 42.04658 | -86.95015 | 21189 ft | 446 kts | 104° |
| 2026-05-06 15:18 | 42.04165 | -86.90884 | 21649 ft | 449 kts | 104° |
| 2026-05-06 15:18 | 42.03666 | -86.86725 | 22134 ft | 452 kts | 104° |
| 2026-05-06 15:18 | 42.03162 | -86.82533 | 22602 ft | 455 kts | 104° |
| 2026-05-06 15:18 | 42.02653 | -86.78316 | 23063 ft | 459 kts | 104° |
| 2026-05-06 15:19 | 42.02139 | -86.74068 | 23516 ft | 462 kts | 104° |
| 2026-05-06 15:19 | 42.01618 | -86.69787 | 23899 ft | 465 kts | 104° |
| 2026-05-06 15:19 | 42.01090 | -86.65480 | 24270 ft | 469 kts | 104° |
| 2026-05-06 15:19 | 42.00558 | -86.61140 | 24618 ft | 472 kts | 104° |
| 2026-05-06 15:20 | 42.00021 | -86.56763 | 24974 ft | 475 kts | 104° |
| 2026-05-06 15:20 | 41.99482 | -86.52362 | 25305 ft | 478 kts | 104° |
| 2026-05-06 15:20 | 41.98941 | -86.47940 | 25655 ft | 482 kts | 104° |
| 2026-05-06 15:20 | 41.98393 | -86.43482 | 26007 ft | 485 kts | 104° |
| 2026-05-06 15:21 | 41.97837 | -86.38999 | 26359 ft | 488 kts | 104° |
| 2026-05-06 15:21 | 41.97275 | -86.34492 | 26695 ft | 491 kts | 104° |
| 2026-05-06 15:21 | 41.96705 | -86.29951 | 26940 ft | 496 kts | 104° |
| 2026-05-06 15:21 | 41.96123 | -86.25336 | 27072 ft | 504 kts | 104° |
| 2026-05-06 15:22 | 41.95534 | -86.20658 | 27195 ft | 512 kts | 104° |
| 2026-05-06 15:22 | 41.94995 | -86.15896 | 27370 ft | 518 kts | 102° |
| 2026-05-06 15:22 | 41.94535 | -86.11075 | 27670 ft | 522 kts | 100° |
| 2026-05-06 15:22 | 41.94124 | -86.06205 | 27967 ft | 525 kts | 100° |
| 2026-05-06 15:23 | 41.93729 | -86.01324 | 28257 ft | 527 kts | 100° |
| 2026-05-06 15:23 | 41.93318 | -85.96415 | 28537 ft | 530 kts | 100° |
| 2026-05-06 15:23 | 41.92880 | -85.91489 | 28822 ft | 532 kts | 101° |
| 2026-05-06 15:23 | 41.92418 | -85.86552 | 29092 ft | 534 kts | 101° |
| 2026-05-06 15:24 | 41.91936 | -85.81595 | 29363 ft | 536 kts | 101° |
| 2026-05-06 15:24 | 41.91447 | -85.76628 | 29728 ft | 537 kts | 101° |
| 2026-05-06 15:24 | 41.90961 | -85.71667 | 30124 ft | 536 kts | 101° |
| 2026-05-06 15:24 | 41.90477 | -85.66689 | 30391 ft | 537 kts | 101° |
| 2026-05-06 15:25 | 41.89992 | -85.61703 | 30571 ft | 541 kts | 101° |
| 2026-05-06 15:25 | 41.89502 | -85.56684 | 30804 ft | 543 kts | 101° |
| 2026-05-06 15:25 | 41.89011 | -85.51657 | 31055 ft | 545 kts | 101° |
| 2026-05-06 15:25 | 41.88518 | -85.46609 | 31306 ft | 546 kts | 101° |
| 2026-05-06 15:26 | 41.88022 | -85.41543 | 31522 ft | 548 kts | 101° |
| 2026-05-06 15:26 | 41.87519 | -85.36460 | 31742 ft | 551 kts | 101° |
| 2026-05-06 15:26 | 41.87008 | -85.31360 | 31982 ft | 553 kts | 101° |
| 2026-05-06 15:26 | 41.86494 | -85.26247 | 32221 ft | 554 kts | 101° |
| 2026-05-06 15:27 | 41.85976 | -85.21116 | 32472 ft | 556 kts | 101° |
| 2026-05-06 15:27 | 41.85457 | -85.15962 | 32723 ft | 558 kts | 101° |
| 2026-05-06 15:27 | 41.84933 | -85.10793 | 32975 ft | 560 kts | 102° |
| 2026-05-06 15:27 | 41.84405 | -85.05617 | 33230 ft | 561 kts | 102° |
| 2026-05-06 15:28 | 41.83874 | -85.00425 | 33457 ft | 563 kts | 102° |
| 2026-05-06 15:28 | 41.83340 | -84.95209 | 33703 ft | 565 kts | 102° |
| 2026-05-06 15:28 | 41.82984 | -84.91753 | 33873 ft | 566 kts | 102° |
| 2026-05-06 15:28 | 41.82258 | -84.84755 | 34194 ft | 567 kts | 102° |
| 2026-05-06 15:29 | 41.81896 | -84.81286 | 34367 ft | 567 kts | 102° |
| 2026-05-06 15:29 | 41.81346 | -84.76048 | 34681 ft | 566 kts | 102° |
| 2026-05-06 15:29 | 41.80796 | -84.70831 | 35000 ft | 565 kts | 102° |
| 2026-05-06 15:29 | 41.80246 | -84.65625 | 35299 ft | 563 kts | 102° |
| 2026-05-06 15:30 | 41.79697 | -84.60441 | 35619 ft | 562 kts | 102° |
| 2026-05-06 15:30 | 41.79147 | -84.55264 | 35916 ft | 560 kts | 102° |
| 2026-05-06 15:30 | 41.78594 | -84.50089 | 36210 ft | 559 kts | 102° |
| 2026-05-06 15:30 | 41.78046 | -84.44940 | 36490 ft | 558 kts | 101° |
| 2026-05-06 15:31 | 41.77763 | -84.39743 | 36755 ft | 561 kts | 93° |
| 2026-05-06 15:31 | 41.77742 | -84.34515 | 36942 ft | 561 kts | 93° |
| 2026-05-06 15:31 | 41.77725 | -84.29295 | 36989 ft | 560 kts | 93° |
| 2026-05-06 15:32 | 41.77653 | -84.13616 | 36990 ft | 562 kts | 93° |
| 2026-05-06 15:32 | 41.77587 | -84.03152 | 36989 ft | 562 kts | 93° |
| 2026-05-06 15:33 | 41.77502 | -83.92685 | 36985 ft | 562 kts | 93° |
| 2026-05-06 15:33 | 41.77413 | -83.82209 | 36965 ft | 562 kts | 93° |
| 2026-05-06 15:34 | 41.77318 | -83.71730 | 36974 ft | 563 kts | 94° |
| 2026-05-06 15:34 | 41.77216 | -83.61236 | 36978 ft | 563 kts | 94° |
| 2026-05-06 15:35 | 41.76739 | -83.50822 | 36950 ft | 558 kts | 102° |
| 2026-05-06 15:35 | 41.75730 | -83.40491 | 36956 ft | 559 kts | 102° |
| 2026-05-06 15:36 | 41.74724 | -83.30159 | 36965 ft | 559 kts | 102° |
| 2026-05-06 15:36 | 41.73710 | -83.19830 | 36970 ft | 560 kts | 102° |
| 2026-05-06 15:37 | 41.72682 | -83.09492 | 36949 ft | 560 kts | 102° |
| 2026-05-06 15:37 | 41.71642 | -82.99158 | 36962 ft | 560 kts | 102° |
| 2026-05-06 15:38 | 41.70596 | -82.88813 | 36967 ft | 561 kts | 102° |
| 2026-05-06 15:38 | 41.69539 | -82.78473 | 36969 ft | 561 kts | 102° |
| 2026-05-06 15:39 | 41.68468 | -82.68136 | 36959 ft | 561 kts | 102° |
| 2026-05-06 15:39 | 41.67390 | -82.57805 | 36962 ft | 561 kts | 102° |
| 2026-05-06 15:40 | 41.66310 | -82.47466 | 36957 ft | 561 kts | 102° |
| 2026-05-06 15:40 | 41.65222 | -82.37128 | 36944 ft | 561 kts | 103° |
| 2026-05-06 15:41 | 41.64114 | -82.26797 | 36947 ft | 562 kts | 103° |
| 2026-05-06 15:41 | 41.62992 | -82.16455 | 36958 ft | 562 kts | 103° |
| 2026-05-06 15:42 | 41.61868 | -82.06117 | 36959 ft | 562 kts | 103° |
| 2026-05-06 15:42 | 41.60738 | -81.95774 | 36959 ft | 562 kts | 103° |
| 2026-05-06 15:43 | 41.59600 | -81.85437 | 36960 ft | 562 kts | 103° |
| 2026-05-06 15:43 | 41.58446 | -81.75106 | 36959 ft | 562 kts | 103° |
| 2026-05-06 15:44 | 41.57279 | -81.64782 | 36923 ft | 562 kts | 103° |
| 2026-05-06 15:44 | 41.56103 | -81.54458 | 36937 ft | 563 kts | 103° |
| 2026-05-06 15:45 | 41.54927 | -81.44128 | 36943 ft | 563 kts | 103° |
| 2026-05-06 15:45 | 41.53805 | -81.33771 | 36950 ft | 564 kts | 101° |
| 2026-05-06 15:46 | 41.52888 | -81.23355 | 36938 ft | 565 kts | 100° |
| 2026-05-06 15:46 | 41.52018 | -81.12934 | 36944 ft | 565 kts | 101° |
| 2026-05-06 15:47 | 41.51069 | -81.02527 | 36939 ft | 565 kts | 101° |
| 2026-05-06 15:47 | 41.50070 | -80.92129 | 36934 ft | 565 kts | 102° |
| 2026-05-06 15:48 | 41.49063 | -80.81724 | 36893 ft | 565 kts | 101° |
| 2026-05-06 15:48 | 41.48063 | -80.71326 | 36905 ft | 566 kts | 101° |
| 2026-05-06 15:49 | 41.47069 | -80.60964 | 36903 ft | 566 kts | 101° |
| 2026-05-06 15:49 | 41.46059 | -80.50543 | 36879 ft | 566 kts | 101° |
| 2026-05-06 15:50 | 41.45028 | -80.40135 | 36891 ft | 566 kts | 102° |
| 2026-05-06 15:50 | 41.43984 | -80.29729 | 36891 ft | 567 kts | 102° |
| 2026-05-06 15:51 | 41.42940 | -80.19322 | 36897 ft | 566 kts | 102° |
| 2026-05-06 15:51 | 41.41886 | -80.08924 | 36881 ft | 566 kts | 101° |
| 2026-05-06 15:52 | 41.40865 | -79.98520 | 36894 ft | 566 kts | 101° |
| 2026-05-06 15:52 | 41.39871 | -79.88096 | 36899 ft | 567 kts | 101° |
| 2026-05-06 15:53 | 41.38869 | -79.77682 | 36872 ft | 567 kts | 101° |
| 2026-05-06 15:53 | 41.37833 | -79.67273 | 36860 ft | 567 kts | 101° |
| 2026-05-06 15:54 | 41.36779 | -79.56878 | 36859 ft | 566 kts | 102° |
| 2026-05-06 15:54 | 41.35720 | -79.46480 | 36864 ft | 567 kts | 101° |
| 2026-05-06 15:55 | 41.34672 | -79.36140 | 36843 ft | 566 kts | 101° |
| 2026-05-06 15:55 | 41.33607 | -79.25759 | 36846 ft | 566 kts | 101° |
| 2026-05-06 15:56 | 41.32517 | -79.15300 | 36849 ft | 566 kts | 102° |
| 2026-05-06 15:56 | 41.31423 | -79.04988 | 36815 ft | 566 kts | 101° |
| 2026-05-06 15:57 | 41.30325 | -78.94617 | 36830 ft | 565 kts | 101° |
| 2026-05-06 15:57 | 41.29228 | -78.84271 | 36840 ft | 565 kts | 101° |
| 2026-05-06 15:58 | 41.28116 | -78.73923 | 36827 ft | 565 kts | 102° |
| 2026-05-06 15:58 | 41.26989 | -78.63580 | 36785 ft | 565 kts | 101° |
| 2026-05-06 15:59 | 41.25856 | -78.53255 | 36809 ft | 564 kts | 101° |
| 2026-05-06 15:59 | 41.24713 | -78.42947 | 36575 ft | 563 kts | 102° |
| 2026-05-06 16:00 | 41.24139 | -78.37799 | 36330 ft | 563 kts | 102° |
| 2026-05-06 16:00 | 41.23565 | -78.32656 | 35872 ft | 563 kts | 102° |
| 2026-05-06 16:00 | 41.22991 | -78.27506 | 35272 ft | 564 kts | 102° |
| 2026-05-06 16:00 | 41.22412 | -78.22345 | 34655 ft | 565 kts | 102° |
| 2026-05-06 16:01 | 41.21824 | -78.17175 | 34034 ft | 567 kts | 102° |
| 2026-05-06 16:01 | 41.21231 | -78.11996 | 33335 ft | 568 kts | 103° |
| 2026-05-06 16:01 | 41.20618 | -78.06826 | 32905 ft | 566 kts | 103° |
| 2026-05-06 16:01 | 41.19982 | -78.01671 | 32739 ft | 564 kts | 103° |
| 2026-05-06 16:02 | 41.18676 | -77.91393 | 32793 ft | 562 kts | 103° |
| 2026-05-06 16:02 | 41.17372 | -77.81177 | 32792 ft | 561 kts | 103° |
| 2026-05-06 16:03 | 41.16079 | -77.70973 | 32792 ft | 560 kts | 103° |
| 2026-05-06 16:03 | 41.14793 | -77.60776 | 32790 ft | 560 kts | 103° |
| 2026-05-06 16:04 | 41.13491 | -77.50583 | 32775 ft | 560 kts | 103° |
| 2026-05-06 16:04 | 41.12178 | -77.40414 | 32782 ft | 559 kts | 104° |
| 2026-05-06 16:05 | 41.10850 | -77.30252 | 32428 ft | 559 kts | 104° |
| 2026-05-06 16:05 | 41.10185 | -77.25180 | 31734 ft | 561 kts | 104° |
| 2026-05-06 16:05 | 41.09515 | -77.20076 | 31161 ft | 558 kts | 104° |
| 2026-05-06 16:06 | 41.09077 | -77.16736 | 30895 ft | 553 kts | 104° |
| 2026-05-06 16:06 | 41.08416 | -77.11715 | 30183 ft | 552 kts | 104° |
| 2026-05-06 16:06 | 41.07754 | -77.06714 | 29464 ft | 550 kts | 104° |
| 2026-05-06 16:06 | 41.07093 | -77.01738 | 28650 ft | 547 kts | 104° |
| 2026-05-06 16:07 | 41.06433 | -76.96792 | 27915 ft | 543 kts | 104° |
| 2026-05-06 16:07 | 41.05776 | -76.91886 | 27228 ft | 538 kts | 104° |
| 2026-05-06 16:07 | 41.05125 | -76.87032 | 26596 ft | 532 kts | 104° |
| 2026-05-06 16:07 | 41.04479 | -76.82239 | 25908 ft | 527 kts | 104° |
| 2026-05-06 16:08 | 41.03839 | -76.77480 | 25209 ft | 522 kts | 104° |
| 2026-05-06 16:08 | 41.03203 | -76.72781 | 24590 ft | 517 kts | 104° |
| 2026-05-06 16:08 | 41.02564 | -76.68114 | 24014 ft | 511 kts | 105° |
| 2026-05-06 16:08 | 41.01664 | -76.63645 | 23602 ft | 497 kts | 112° |
| 2026-05-06 16:09 | 41.00628 | -76.59297 | 22834 ft | 495 kts | 112° |
| 2026-05-06 16:09 | 40.99588 | -76.54963 | 22101 ft | 492 kts | 112° |
| 2026-05-06 16:09 | 40.98554 | -76.50676 | 21434 ft | 486 kts | 112° |
| 2026-05-06 16:09 | 40.97530 | -76.46435 | 20830 ft | 481 kts | 112° |
| 2026-05-06 16:10 | 40.96518 | -76.42240 | 20131 ft | 478 kts | 112° |
| 2026-05-06 16:10 | 40.95507 | -76.38061 | 19497 ft | 475 kts | 113° |
| 2026-05-06 16:10 | 40.94505 | -76.33918 | 19025 ft | 468 kts | 113° |
| 2026-05-06 16:10 | 40.93529 | -76.29880 | 18835 ft | 454 kts | 113° |
| 2026-05-06 16:11 | 40.92583 | -76.25966 | 18846 ft | 438 kts | 113° |
| 2026-05-06 16:11 | 40.91675 | -76.22203 | 18835 ft | 424 kts | 113° |
| 2026-05-06 16:11 | 40.90769 | -76.18489 | 18303 ft | 425 kts | 114° |
| 2026-05-06 16:11 | 40.89859 | -76.14790 | 17893 ft | 419 kts | 114° |
| 2026-05-06 16:12 | 40.88966 | -76.11152 | 17487 ft | 413 kts | 114° |
| 2026-05-06 16:12 | 40.88085 | -76.07561 | 17049 ft | 409 kts | 114° |
| 2026-05-06 16:12 | 40.87212 | -76.04003 | 16617 ft | 405 kts | 114° |
| 2026-05-06 16:12 | 40.86347 | -76.00479 | 16182 ft | 401 kts | 114° |
| 2026-05-06 16:13 | 40.85486 | -75.96990 | 15750 ft | 398 kts | 115° |
| 2026-05-06 16:13 | 40.84634 | -75.93537 | 15295 ft | 394 kts | 115° |
| 2026-05-06 16:13 | 40.83788 | -75.90107 | 14887 ft | 391 kts | 114° |
| 2026-05-06 16:13 | 40.82949 | -75.86701 | 14465 ft | 388 kts | 115° |
| 2026-05-06 16:14 | 40.82119 | -75.83326 | 14048 ft | 384 kts | 115° |
| 2026-05-06 16:14 | 40.81297 | -75.79989 | 13637 ft | 380 kts | 115° |
| 2026-05-06 16:14 | 40.80479 | -75.76688 | 13200 ft | 375 kts | 115° |
| 2026-05-06 16:14 | 40.79669 | -75.73435 | 12956 ft | 374 kts | 115° |
| 2026-05-06 16:15 | 40.78849 | -75.70158 | 12974 ft | 378 kts | 115° |
| 2026-05-06 16:15 | 40.78020 | -75.66858 | 12976 ft | 379 kts | 115° |
| 2026-05-06 16:15 | 40.77190 | -75.63551 | 12982 ft | 380 kts | 115° |
| 2026-05-06 16:15 | 40.76366 | -75.60245 | 12980 ft | 380 kts | 115° |
| 2026-05-06 16:16 | 40.75541 | -75.56936 | 12979 ft | 380 kts | 115° |
| 2026-05-06 16:16 | 40.74712 | -75.53629 | 12992 ft | 380 kts | 115° |
| 2026-05-06 16:16 | 40.73880 | -75.50320 | 12992 ft | 380 kts | 115° |
| 2026-05-06 16:16 | 40.73047 | -75.47012 | 12989 ft | 380 kts | 115° |
| 2026-05-06 16:17 | 40.72243 | -75.43694 | 12987 ft | 381 kts | 113° |
| 2026-05-06 16:17 | 40.71525 | -75.40321 | 12978 ft | 383 kts | 112° |
| 2026-05-06 16:17 | 40.70862 | -75.36911 | 12989 ft | 384 kts | 111° |
| 2026-05-06 16:17 | 40.70220 | -75.33491 | 12989 ft | 385 kts | 111° |
| 2026-05-06 16:18 | 40.69577 | -75.30065 | 12892 ft | 385 kts | 111° |
| 2026-05-06 16:18 | 40.68922 | -75.26658 | 12760 ft | 383 kts | 111° |
| 2026-05-06 16:18 | 40.68254 | -75.23261 | 12625 ft | 382 kts | 112° |
| 2026-05-06 16:18 | 40.67581 | -75.19876 | 12488 ft | 381 kts | 112° |
| 2026-05-06 16:19 | 40.66798 | -75.16577 | 12243 ft | 371 kts | 121° |
| 2026-05-06 16:19 | 40.65587 | -75.13667 | 11751 ft | 355 kts | 134° |
| 2026-05-06 16:19 | 40.64025 | -75.11235 | 11224 ft | 344 kts | 142° |
| 2026-05-06 16:19 | 40.62391 | -75.08940 | 10718 ft | 342 kts | 142° |
| 2026-05-06 16:20 | 40.60797 | -75.06686 | 10331 ft | 338 kts | 141° |
| 2026-05-06 16:20 | 40.59215 | -75.04436 | 10062 ft | 331 kts | 141° |
| 2026-05-06 16:20 | 40.57670 | -75.02193 | 9962 ft | 332 kts | 137° |
| 2026-05-06 16:20 | 40.56438 | -74.99546 | 9984 ft | 347 kts | 122° |
| 2026-05-06 16:21 | 40.55542 | -74.96579 | 9988 ft | 350 kts | 119° |
| 2026-05-06 16:21 | 40.54660 | -74.93598 | 9990 ft | 349 kts | 119° |
| 2026-05-06 16:21 | 40.53782 | -74.90627 | 9993 ft | 348 kts | 119° |
| 2026-05-06 16:21 | 40.52929 | -74.87738 | 9992 ft | 330 kts | 120° |
| 2026-05-06 16:22 | 40.52124 | -74.84998 | 9995 ft | 313 kts | 120° |
| 2026-05-06 16:22 | 40.51347 | -74.82377 | 9998 ft | 304 kts | 121° |
| 2026-05-06 16:22 | 40.50574 | -74.79810 | 9999 ft | 301 kts | 121° |
| 2026-05-06 16:22 | 40.49797 | -74.77246 | 10008 ft | 303 kts | 121° |
| 2026-05-06 16:23 | 40.49019 | -74.74682 | 9999 ft | 302 kts | 121° |
| 2026-05-06 16:23 | 40.48243 | -74.72126 | 9998 ft | 301 kts | 120° |
| 2026-05-06 16:23 | 40.47473 | -74.69579 | 9874 ft | 299 kts | 120° |
| 2026-05-06 16:23 | 40.46708 | -74.67051 | 9496 ft | 298 kts | 120° |
| 2026-05-06 16:24 | 40.45943 | -74.64526 | 9106 ft | 297 kts | 120° |
| 2026-05-06 16:24 | 40.45180 | -74.62013 | 8742 ft | 296 kts | 120° |
| 2026-05-06 16:24 | 40.44422 | -74.59502 | 8430 ft | 295 kts | 120° |
| 2026-05-06 16:24 | 40.43665 | -74.57002 | 8128 ft | 294 kts | 121° |
| 2026-05-06 16:25 | 40.42924 | -74.54496 | 7862 ft | 297 kts | 116° |
| 2026-05-06 16:25 | 40.42822 | -74.51728 | 7649 ft | 316 kts | 83° |
| 2026-05-06 16:25 | 40.43713 | -74.49057 | 7382 ft | 323 kts | 64° |
| 2026-05-06 16:25 | 40.44726 | -74.46428 | 7081 ft | 321 kts | 69° |
| 2026-05-06 16:26 | 40.45617 | -74.43708 | 6988 ft | 319 kts | 72° |
| 2026-05-06 16:26 | 40.46404 | -74.40986 | 7007 ft | 319 kts | 75° |
| 2026-05-06 16:26 | 40.47141 | -74.38236 | 7004 ft | 320 kts | 77° |
| 2026-05-06 16:26 | 40.47862 | -74.35469 | 6999 ft | 320 kts | 76° |
| 2026-05-06 16:27 | 40.48573 | -74.32740 | 7015 ft | 319 kts | 76° |
| 2026-05-06 16:27 | 40.49308 | -74.29939 | 7024 ft | 320 kts | 76° |
| 2026-05-06 16:27 | 40.50038 | -74.27183 | 7022 ft | 320 kts | 75° |
| 2026-05-06 16:27 | 40.50772 | -74.24417 | 7024 ft | 321 kts | 76° |
| 2026-05-06 16:28 | 40.51510 | -74.21646 | 7026 ft | 322 kts | 75° |
| 2026-05-06 16:28 | 40.52250 | -74.18877 | 7024 ft | 322 kts | 75° |
| 2026-05-06 16:28 | 40.53153 | -74.16200 | 7020 ft | 326 kts | 58° |
| 2026-05-06 16:28 | 40.54766 | -74.14087 | 7037 ft | 327 kts | 32° |
| 2026-05-06 16:29 | 40.56718 | -74.12536 | 6920 ft | 327 kts | 28° |
| 2026-05-06 16:29 | 40.58693 | -74.11058 | 6687 ft | 325 kts | 27° |
| 2026-05-06 16:29 | 40.60667 | -74.09586 | 6455 ft | 320 kts | 27° |
| 2026-05-06 16:29 | 40.62569 | -74.08171 | 6076 ft | 316 kts | 27° |
| 2026-05-06 16:30 | 40.64490 | -74.06728 | 5616 ft | 319 kts | 27° |
| 2026-05-06 16:30 | 40.65769 | -74.05764 | 5424 ft | 319 kts | 27° |
| 2026-05-06 16:30 | 40.68379 | -74.03981 | 5155 ft | 312 kts | 19° |
| 2026-05-06 16:30 | 40.70389 | -74.02916 | 4877 ft | 310 kts | 17° |
| 2026-05-06 16:31 | 40.72390 | -74.01880 | 4603 ft | 308 kts | 17° |
| 2026-05-06 16:31 | 40.74383 | -74.00848 | 4264 ft | 307 kts | 18° |
| 2026-05-06 16:31 | 40.76364 | -73.99828 | 4025 ft | 304 kts | 17° |
| 2026-05-06 16:31 | 40.78346 | -73.98789 | 3998 ft | 309 kts | 17° |
| 2026-05-06 16:32 | 40.80348 | -73.97732 | 4000 ft | 311 kts | 17° |
| 2026-05-06 16:32 | 40.82358 | -73.96671 | 3999 ft | 311 kts | 17° |
| 2026-05-06 16:32 | 40.84363 | -73.95616 | 3886 ft | 308 kts | 17° |
| 2026-05-06 16:32 | 40.86346 | -73.94579 | 3634 ft | 305 kts | 18° |
| 2026-05-06 16:33 | 40.88309 | -73.93570 | 3350 ft | 301 kts | 18° |
| 2026-05-06 16:33 | 40.90255 | -73.92578 | 3059 ft | 297 kts | 18° |
| 2026-05-06 16:33 | 40.92149 | -73.91610 | 2983 ft | 285 kts | 18° |
| 2026-05-06 16:34 | 40.95659 | -73.89824 | 2997 ft | 259 kts | 17° |
| 2026-05-06 16:34 | 40.97322 | -73.88936 | 3003 ft | 258 kts | 24° |
| 2026-05-06 16:34 | 40.98654 | -73.87424 | 3004 ft | 259 kts | 59° |
| 2026-05-06 16:34 | 40.99258 | -73.85243 | 3008 ft | 249 kts | 92° |
| 2026-05-06 16:35 | 40.99031 | -73.83038 | 3026 ft | 239 kts | 114° |
| 2026-05-06 16:35 | 40.98536 | -73.80952 | 3013 ft | 237 kts | 117° |
| 2026-05-06 16:35 | 40.97937 | -73.78938 | 3000 ft | 229 kts | 132° |
| 2026-05-06 16:35 | 40.96826 | -73.77609 | 3018 ft | 209 kts | 161° |
| 2026-05-06 16:36 | 40.95487 | -73.77018 | 3019 ft | 200 kts | 175° |
| 2026-05-06 16:36 | 40.94130 | -73.76647 | 3014 ft | 198 kts | 177° |
| 2026-05-06 16:36 | 40.92778 | -73.76329 | 3009 ft | 196 kts | 182° |
| 2026-05-06 16:36 | 40.91463 | -73.76514 | 2902 ft | 185 kts | 202° |
| 2026-05-06 16:37 | 40.90365 | -73.77267 | 2719 ft | 173 kts | 214° |
| 2026-05-06 16:37 | 40.89367 | -73.78096 | 2522 ft | 166 kts | 214° |
| 2026-05-06 16:37 | 40.88393 | -73.78905 | 2298 ft | 161 kts | 213° |
| 2026-05-06 16:37 | 40.87454 | -73.79685 | 2070 ft | 161 kts | 213° |
| 2026-05-06 16:38 | 40.86503 | -73.80474 | 1858 ft | 162 kts | 213° |
| 2026-05-06 16:38 | 40.85544 | -73.81269 | 1637 ft | 162 kts | 213° |
| 2026-05-06 16:38 | 40.84588 | -73.82062 | 1418 ft | 155 kts | 213° |
| 2026-05-06 16:38 | 40.83717 | -73.82783 | 1204 ft | 145 kts | 212° |
| 2026-05-06 16:39 | 40.82900 | -73.83460 | 1020 ft | 133 kts | 213° |
| 2026-05-06 16:39 | 40.82115 | -73.84109 | 848 ft | 131 kts | 211° |
| 2026-05-06 16:39 | 40.81344 | -73.84750 | 678 ft | 130 kts | 211° |
| 2026-05-06 16:39 | 40.80578 | -73.85386 | 514 ft | 130 kts | 212° |
| 2026-05-06 16:40 | 40.79814 | -73.86017 | 350 ft | 128 kts | 213° |
| 2026-05-06 16:40 | 40.79054 | -73.86649 | 180 ft | 129 kts | 213° |
| 2026-05-06 16:40 | 40.78311 | -73.87262 | 23 ft | 119 kts | 211° |
| 2026-05-06 16:40 | 40.77721 | -73.87750 | 25 ft | 73 kts | 212° |
| 2026-05-06 16:41 | 40.77494 | -73.87939 | 24 ft | 31 kts | 212° |
| 2026-05-06 16:41 | 40.77349 | -73.87996 | 21 ft | 17 kts | 181° |
| 2026-05-06 16:41 | 40.77295 | -73.87962 | 20 ft | 8 kts | 82° |
| 2026-05-06 16:41 | 40.77334 | -73.87920 | 20 ft | 7 kts | 31° |
| 2026-05-06 16:42 | 40.77379 | -73.87883 | 20 ft | 8 kts | 32° |
| 2026-05-06 16:42 | 40.77433 | -73.87838 | 21 ft | 10 kts | 32° |
| 2026-05-06 16:42 | 40.77495 | -73.87786 | 21 ft | 11 kts | 32° |
| 2026-05-06 16:42 | 40.77566 | -73.87728 | 21 ft | 13 kts | 32° |
| 2026-05-06 16:43 | 40.77610 | -73.87678 | 22 ft | 7 kts | 69° |
| 2026-05-06 16:43 | 40.77597 | -73.87611 | 21 ft | 7 kts | 134° |
| 2026-05-06 16:43 | 40.77562 | -73.87570 | 20 ft | 7 kts | 111° |
| 2026-05-06 16:43 | 40.77566 | -73.87541 | 20 ft | 3 kts | 66° |
| 2026-05-06 16:44 | 40.77575 | -73.87529 | 22 ft | 2 kts | 39° |
| 2026-05-06 16:44 | 40.77586 | -73.87518 | 20 ft | 0 kts | 36° |
| 2026-05-06 16:44 | 40.77587 | -73.87517 | 20 ft | 1 kts | 36° |
| 2026-05-06 16:44 | 40.77594 | -73.87497 | 20 ft | 3 kts | 94° |
| 2026-05-06 16:45 | 40.77584 | -73.87456 | 20 ft | 2 kts | 108° |
| 2026-05-06 16:45 | 40.77580 | -73.87443 | 20 ft | 2 kts | 108° |
| 2026-05-06 16:45 | 40.77578 | -73.87433 | 20 ft | 0 kts | 108° |
| 2026-05-06 16:45 | 40.77577 | -73.87431 | 20 ft | 0 kts | 108° |